Terminal Aerodrome Forecast
Issued by NWS

Home | Current Version | Previous Version | Text Only | Print | Product List | Glossary On
Versions: 1 2 3 4 5 6 7 8 9 10 11 12 13 14 15
403
FTUS45 KRIW 222333
TAFBPI
TAF
KBPI 222333Z 2300/2324 VRB06KT P6SM FEW100
     FM230200 31008KT P6SM FEW060
     FM231200 35010KT P6SM VCSH SCT060 SCT100
     FM231900 30011KT P6SM SCT060
     FM232200 30011G20KT P6SM FEW060=

USA.gov is the U.S. government's official web portal to all federal, state and local government web resources and services.